Time;durP1;ratioP1;P1;durP2;ratioP2;P2;SDS_P1;SDS_P2;PMS_P1;PMS_P2;Temp;Humidity;BMP_temperature;BMP_pressure;BME280_temperature;BME280_humidity;BME280_pressure;Samples;Min_cycle;Max_cycle;Signal;HPM_P1;HPM_P2
2021/12/29 00:01:21;;;;;;;;;;;;;;;3.42;73.29;98958.63;4402199;32;34652;-85
2021/12/29 00:03:52;;;;;;;;;;;;;;;3.34;73.81;98968.91;4399066;32;32676;-84
2021/12/29 00:06:19;;;;;;;;;;;;;;;3.46;73.22;98960.09;4400474;32;33950;-84
2021/12/29 00:08:47;;;;;;;;;;;;;;;3.65;72.72;98959.44;4400702;32;35705;-84
2021/12/29 00:11:14;;;;;;;;;;;;;;;3.64;72.59;98960.41;4401549;32;34517;-84
2021/12/29 00:13:41;;;;;;;;;;;;;;;3.47;73.03;98960.91;4399994;32;33001;-84
2021/12/29 00:16:09;;;;;;;;;;;;;;;3.31;73.76;98965.69;4374639;32;34102;-84
2021/12/29 00:18:36;;;;;;;;;;;;;;;3.05;74.74;98962.44;4401098;32;34063;-84
2021/12/29 00:21:05;;;;;;;;;;;;;;;2.98;75.48;98958.63;4399774;32;34327;-84
2021/12/29 00:23:33;;;;;;;;;;;;;;;3.07;75.02;98962.31;4402412;32;33280;-84
2021/12/29 00:26:20;;;;;;;;;;;;;;;2.96;75.72;98951.81;4398610;32;33729;-84
2021/12/29 00:28:47;;;;;;;;;;;;;;;3.13;75.32;98962.69;4397301;32;35241;-83
2021/12/29 00:31:15;;;;;;;;;;;;;;;3.30;74.18;98949.09;4385541;32;32869;-84
2021/12/29 00:34:00;;;;;;;;;;;;;;;3.13;74.84;98932.97;4415672;32;31788;-83
2021/12/29 00:36:33;;;;;;;;;;;;;;;2.85;76.01;98936.03;4400658;32;34336;-85
2021/12/29 00:39:07;;;;;;;;;;;;;;;3.08;75.45;98935.94;4406042;32;36966;-83
2021/12/29 00:41:36;;;;;;;;;;;;;;;3.13;74.91;98931.16;4396602;32;34441;-83
2021/12/29 00:44:07;;;;;;;;;;;;;;;3.03;75.36;98932.00;4400173;32;32509;-83
2021/12/29 00:46:37;;;;;;;;;;;;;;;3.14;75.15;98938.06;4397738;32;33387;-84
2021/12/29 00:49:04;;;;;;;;;;;;;;;3.22;74.50;98927.81;4397830;32;34029;-83
2021/12/29 00:51:32;;;;;;;;;;;;;;;3.15;74.85;98939.75;4399543;32;34628;-83
2021/12/29 00:54:00;;;;;;;;;;;;;;;3.20;74.82;98935.00;4400358;32;33073;-83
2021/12/29 00:56:27;;;;;;;;;;;;;;;3.35;74.60;98938.22;4404163;32;33870;-83
2021/12/29 00:58:54;;;;;;;;;;;;;;;3.37;73.64;98928.41;4398266;32;33995;-83
2021/12/29 01:01:22;;;;;;;;;;;;;;;3.23;74.57;98937.38;4399776;32;32779;-84
2021/12/29 01:03:49;;;;;;;;;;;;;;;3.45;74.03;98918.13;4402657;32;34070;-83
2021/12/29 01:06:17;;;;;;;;;;;;;;;3.36;73.93;98922.31;4400161;32;33085;-83
2021/12/29 01:08:44;;;;;;;;;;;;;;;3.52;73.68;98919.31;4399540;32;37084;-83
2021/12/29 01:11:12;;;;;;;;;;;;;;;3.55;73.46;98913.81;4410798;32;33754;-83
2021/12/29 01:13:46;;;;;;;;;;;;;;;3.71;72.58;98904.56;4404773;32;34018;-83
2021/12/29 01:16:36;;;;;;;;;;;;;;;3.58;73.14;98914.41;4404461;32;34390;-84
2021/12/29 01:19:04;;;;;;;;;;;;;;;3.64;72.83;98913.06;4409712;32;34934;-83
2021/12/29 01:21:33;;;;;;;;;;;;;;;3.62;73.03;98913.19;4402305;32;33253;-83
2021/12/29 01:24:02;;;;;;;;;;;;;;;3.78;72.38;98907.56;4415692;32;32855;-83
2021/12/29 01:26:29;;;;;;;;;;;;;;;3.76;72.35;98905.03;4416742;32;34267;-84
2021/12/29 01:28:57;;;;;;;;;;;;;;;3.42;73.43;98903.41;4406453;32;36337;-83
2021/12/29 01:31:24;;;;;;;;;;;;;;;3.45;73.54;98902.34;4407547;32;34000;-84
2021/12/29 01:33:51;;;;;;;;;;;;;;;3.48;73.54;98900.31;4404431;32;33137;-84
2021/12/29 01:36:19;;;;;;;;;;;;;;;3.36;74.30;98905.69;4419045;32;34507;-84
2021/12/29 01:38:46;;;;;;;;;;;;;;;3.49;73.87;98914.31;4406273;32;34942;-84
2021/12/29 01:41:13;;;;;;;;;;;;;;;3.67;73.14;98912.81;4402429;32;34136;-85
2021/12/29 01:43:42;;;;;;;;;;;;;;;3.96;72.46;98917.41;4403752;32;32891;-85
2021/12/29 01:46:09;;;;;;;;;;;;;;;3.69;72.65;98918.81;4418177;32;34858;-85
2021/12/29 01:48:36;;;;;;;;;;;;;;;4.42;70.26;98917.94;4391307;32;33311;-84
2021/12/29 01:51:04;;;;;;;;;;;;;;;4.29;70.37;98919.94;4403826;32;33076;-85
2021/12/29 01:53:33;;;;;;;;;;;;;;;4.07;71.37;98927.91;4399893;32;33734;-85
2021/12/29 01:56:01;;;;;;;;;;;;;;;4.30;70.78;98939.19;4420418;32;34782;-85
2021/12/29 01:58:28;;;;;;;;;;;;;;;4.52;70.35;98939.91;4402566;32;35801;-86
2021/12/29 02:00:58;;;;;;;;;;;;;;;4.55;70.17;98930.94;4402232;32;34846;-85
2021/12/29 02:03:26;;;;;;;;;;;;;;;4.72;69.63;98933.00;4393138;32;31572;-86
2021/12/29 02:05:53;;;;;;;;;;;;;;;4.68;69.51;98926.28;4401442;32;35017;-86
2021/12/29 02:08:23;;;;;;;;;;;;;;;5.10;68.01;98922.69;4417078;32;35545;-85
2021/12/29 02:10:51;;;;;;;;;;;;;;;4.93;68.43;98926.75;4405408;32;34363;-85
2021/12/29 02:13:19;;;;;;;;;;;;;;;5.16;67.74;98922.12;4410511;32;33491;-86
2021/12/29 02:15:48;;;;;;;;;;;;;;;5.31;66.55;98921.66;4401956;32;33555;-85
2021/12/29 02:18:18;;;;;;;;;;;;;;;5.09;66.92;98924.47;4401363;32;36944;-85
2021/12/29 02:20:47;;;;;;;;;;;;;;;4.87;68.14;98931.69;4398477;32;34396;-85
2021/12/29 02:23:19;;;;;;;;;;;;;;;4.91;68.14;98930.47;4401257;32;33375;-86
2021/12/29 02:25:48;;;;;;;;;;;;;;;5.11;67.41;98926.97;4417585;32;34484;-85
2021/12/29 02:28:17;;;;;;;;;;;;;;;4.86;68.05;98930.88;4401642;32;35761;-85
2021/12/29 02:30:45;;;;;;;;;;;;;;;5.13;67.04;98933.78;4413427;32;35044;-87
2021/12/29 02:33:14;;;;;;;;;;;;;;;5.06;67.42;98929.16;4404422;32;33090;-86
2021/12/29 02:35:42;;;;;;;;;;;;;;;4.98;67.64;98926.37;4392069;32;33534;-85
2021/12/29 02:38:20;;;;;;;;;;;;;;;4.94;67.87;98927.56;4402432;32;34383;-86
2021/12/29 02:40:49;;;;;;;;;;;;;;;5.04;67.80;98931.09;4401224;32;35040;-85
2021/12/29 02:43:20;;;;;;;;;;;;;;;5.23;66.72;98924.13;4412376;32;33495;-85
2021/12/29 02:45:51;;;;;;;;;;;;;;;5.14;66.77;98935.47;4400470;32;34133;-86
2021/12/29 02:48:21;;;;;;;;;;;;;;;5.12;66.89;98932.13;4414622;32;36026;-86
2021/12/29 02:50:49;;;;;;;;;;;;;;;5.10;66.87;98930.59;4415199;32;35280;-85
2021/12/29 02:53:16;;;;;;;;;;;;;;;5.00;67.19;98927.06;4409648;32;33021;-85
2021/12/29 02:55:43;;;;;;;;;;;;;;;4.77;68.17;98931.66;4412387;32;33850;-85
2021/12/29 02:58:11;;;;;;;;;;;;;;;4.62;68.86;98934.72;4400967;32;35279;-85
2021/12/29 03:00:38;;;;;;;;;;;;;;;4.72;68.37;98936.44;4414964;32;35348;-85
2021/12/29 03:03:16;;;;;;;;;;;;;;;4.72;68.18;98939.09;4401929;32;33784;-85
2021/12/29 03:05:44;;;;;;;;;;;;;;;4.39;69.38;98934.00;4397909;32;33624;-86
2021/12/29 03:08:12;;;;;;;;;;;;;;;4.31;69.54;98928.53;4413884;32;34956;-86
2021/12/29 03:10:41;;;;;;;;;;;;;;;4.40;69.77;98938.31;4388056;32;34669;-85
2021/12/29 03:13:09;;;;;;;;;;;;;;;4.68;68.48;98921.88;4401270;32;33414;-86
2021/12/29 03:15:36;;;;;;;;;;;;;;;4.52;69.23;98928.56;4414484;32;34310;-86
2021/12/29 03:18:04;;;;;;;;;;;;;;;4.47;69.49;98925.47;4400650;32;33197;-86
2021/12/29 03:20:32;;;;;;;;;;;;;;;4.52;69.28;98926.75;4414948;32;35392;-85
2021/12/29 03:22:59;;;;;;;;;;;;;;;4.58;69.18;98922.75;4401270;32;33586;-85
2021/12/29 03:25:26;;;;;;;;;;;;;;;4.45;69.56;98933.47;4399006;32;33600;-85
2021/12/29 03:28:00;;;;;;;;;;;;;;;4.23;70.35;98927.47;4400776;32;34459;-85
2021/12/29 03:30:28;;;;;;;;;;;;;;;4.62;68.92;98925.00;4414719;32;34580;-85
2021/12/29 03:33:03;;;;;;;;;;;;;;;4.59;68.77;98924.44;4400880;32;32842;-84
2021/12/29 03:35:35;;;;;;;;;;;;;;;4.50;69.19;98919.94;4399278;32;33323;-85
2021/12/29 03:38:04;;;;;;;;;;;;;;;4.42;69.47;98923.22;4402929;32;35159;-84
2021/12/29 03:40:31;;;;;;;;;;;;;;;4.31;70.03;98928.53;4419407;32;35122;-85
2021/12/29 03:42:59;;;;;;;;;;;;;;;4.34;69.46;98936.16;4415338;32;33055;-84
2021/12/29 03:45:26;;;;;;;;;;;;;;;4.03;70.66;98930.91;4414049;32;33049;-85
2021/12/29 03:47:54;;;;;;;;;;;;;;;4.06;71.00;98935.94;4387944;32;34836;-85
2021/12/29 03:50:21;;;;;;;;;;;;;;;4.26;70.65;98943.03;4413419;32;34276;-85
2021/12/29 03:52:49;;;;;;;;;;;;;;;4.18;70.51;98950.72;4414699;32;33820;-84
2021/12/29 03:55:16;;;;;;;;;;;;;;;4.49;69.72;98937.53;4413725;32;33111;-84
2021/12/29 03:57:43;;;;;;;;;;;;;;;4.71;68.53;98937.41;4397374;32;33616;-84
2021/12/29 04:00:13;;;;;;;;;;;;;;;4.69;68.53;98934.09;4413530;32;35015;-84
2021/12/29 04:02:40;;;;;;;;;;;;;;;4.49;68.93;98934.91;4412385;32;33093;-84
2021/12/29 04:05:08;;;;;;;;;;;;;;;4.56;68.78;98938.72;4414459;32;33635;-85
2021/12/29 04:07:36;;;;;;;;;;;;;;;4.56;69.23;98935.22;4387257;32;35315;-84
2021/12/29 04:10:04;;;;;;;;;;;;;;;4.78;68.30;98935.09;4401911;32;34898;-84
2021/12/29 04:12:32;;;;;;;;;;;;;;;4.79;68.28;98940.25;4397145;32;32711;-84
2021/12/29 04:14:59;;;;;;;;;;;;;;;4.86;67.78;98937.94;4399038;32;32635;-84
2021/12/29 04:17:29;;;;;;;;;;;;;;;4.63;68.34;98949.56;4401499;32;34804;-85
2021/12/29 04:22:43;;;;;;;;;;;;;;;4.68;68.49;98953.50;4402715;32;32553;-84
2021/12/29 04:25:11;;;;;;;;;;;;;;;4.58;68.76;98965.75;4399753;32;34001;-84
2021/12/29 04:27:38;;;;;;;;;;;;;;;4.52;68.94;98966.25;4415711;32;35156;-84
2021/12/29 04:30:06;;;;;;;;;;;;;;;4.81;68.61;98961.22;4400662;32;35276;-84
2021/12/29 04:32:33;;;;;;;;;;;;;;;5.06;67.40;98955.50;4413985;32;34173;-84
2021/12/29 04:35:01;;;;;;;;;;;;;;;4.80;67.79;98965.63;4411853;32;33287;-84
2021/12/29 04:37:28;;;;;;;;;;;;;;;4.69;68.37;98960.44;4411801;32;34714;-84
2021/12/29 04:39:56;;;;;;;;;;;;;;;4.93;68.04;98958.38;4415776;32;35355;-84
2021/12/29 04:42:23;;;;;;;;;;;;;;;5.13;66.91;98951.41;4414602;32;33217;-84
2021/12/29 04:44:51;;;;;;;;;;;;;;;4.99;67.29;98954.38;4414269;32;34816;-84
2021/12/29 04:47:19;;;;;;;;;;;;;;;4.99;67.71;98965.75;4412403;32;34978;-84
2021/12/29 04:49:47;;;;;;;;;;;;;;;4.84;68.01;98974.97;4398890;32;33509;-84
2021/12/29 04:52:15;;;;;;;;;;;;;;;4.92;67.52;98967.22;4412623;32;35008;-84
2021/12/29 04:54:42;;;;;;;;;;;;;;;5.07;67.07;98971.22;4399946;32;32616;-84
2021/12/29 04:57:10;;;;;;;;;;;;;;;5.20;67.15;98968.38;4410783;32;35317;-84
2021/12/29 04:59:38;;;;;;;;;;;;;;;5.21;66.78;98968.25;4401444;32;35444;-83
2021/12/29 05:02:05;;;;;;;;;;;;;;;5.28;66.64;98964.09;4400283;32;32814;-84
2021/12/29 05:04:35;;;;;;;;;;;;;;;5.35;66.51;98980.25;4400495;32;34779;-84
2021/12/29 05:09:48;;;;;;;;;;;;;;;5.35;66.26;98972.34;4414526;32;35193;-84
2021/12/29 05:12:16;;;;;;;;;;;;;;;5.38;66.22;98961.53;4401989;32;35708;-83
2021/12/29 05:14:43;;;;;;;;;;;;;;;5.45;66.09;98962.69;4413785;32;34133;-84
2021/12/29 05:17:10;;;;;;;;;;;;;;;5.31;66.47;98973.56;4417372;32;35594;-83
2021/12/29 05:19:38;;;;;;;;;;;;;;;5.66;64.94;98959.84;4406606;32;34713;-84
2021/12/29 05:22:05;;;;;;;;;;;;;;;5.46;65.56;98965.16;4403879;32;32335;-83
2021/12/29 05:24:32;;;;;;;;;;;;;;;5.48;65.66;98971.97;4418086;32;34854;-83
2021/12/29 05:27:01;;;;;;;;;;;;;;;5.34;65.92;98965.37;4400512;32;34533;-83
2021/12/29 05:29:29;;;;;;;;;;;;;;;5.47;65.76;98972.09;4401764;32;34724;-84
2021/12/29 05:31:56;;;;;;;;;;;;;;;5.48;65.69;98969.34;4399949;32;31809;-83
2021/12/29 05:34:24;;;;;;;;;;;;;;;5.27;66.09;98969.53;4412912;32;33198;-83
2021/12/29 05:36:51;;;;;;;;;;;;;;;5.35;66.13;98975.81;4416286;32;35859;-83
2021/12/29 05:39:19;;;;;;;;;;;;;;;5.38;65.85;98967.62;4409026;32;35148;-83
2021/12/29 05:41:47;;;;;;;;;;;;;;;5.49;65.54;98984.19;4400218;32;33379;-84
2021/12/29 05:44:14;;;;;;;;;;;;;;;5.53;65.43;98982.13;4411334;32;34072;-83
2021/12/29 05:46:43;;;;;;;;;;;;;;;5.49;65.58;98996.56;4412007;32;34214;-83
2021/12/29 05:49:11;;;;;;;;;;;;;;;5.56;65.31;98993.25;4400202;32;33588;-83
2021/12/29 05:51:38;;;;;;;;;;;;;;;5.59;65.34;98990.34;4400666;32;32794;-83
2021/12/29 05:54:06;;;;;;;;;;;;;;;5.49;65.59;98992.12;4412802;32;34208;-83
2021/12/29 05:56:34;;;;;;;;;;;;;;;5.47;65.89;98995.03;4403540;32;35835;-83
2021/12/29 05:59:02;;;;;;;;;;;;;;;5.54;65.51;98997.84;4399501;32;35123;-83
2021/12/29 06:01:31;;;;;;;;;;;;;;;5.54;65.48;99000.47;4403560;32;32887;-83
2021/12/29 06:03:59;;;;;;;;;;;;;;;5.60;65.31;98992.03;4416994;32;35480;-83
2021/12/29 06:06:26;;;;;;;;;;;;;;;5.61;65.30;99003.41;4400870;32;34212;-83
2021/12/29 06:08:53;;;;;;;;;;;;;;;5.57;65.27;99002.84;4396888;32;34426;-83
2021/12/29 06:11:21;;;;;;;;;;;;;;;5.46;65.62;98998.62;4417182;32;33350;-83
2021/12/29 06:13:48;;;;;;;;;;;;;;;5.55;65.39;99001.31;4400863;32;32192;-83
2021/12/29 06:16:15;;;;;;;;;;;;;;;5.35;65.93;98996.09;4418957;32;35263;-83
2021/12/29 06:18:43;;;;;;;;;;;;;;;5.16;66.33;99002.06;4413960;32;36037;-83
2021/12/29 06:21:16;;;;;;;;;;;;;;;5.44;65.61;99004.03;4418669;32;32817;-83
2021/12/29 06:23:44;;;;;;;;;;;;;;;5.57;65.19;99002.84;4413644;32;33523;-83
2021/12/29 06:26:11;;;;;;;;;;;;;;;5.60;65.12;99015.75;4415443;32;34588;-83
2021/12/29 06:28:39;;;;;;;;;;;;;;;5.47;65.59;99013.50;4401937;32;34816;-83
2021/12/29 06:31:07;;;;;;;;;;;;;;;5.43;65.68;99004.16;4414459;32;34115;-83
2021/12/29 06:33:34;;;;;;;;;;;;;;;5.18;66.71;99009.87;4404494;32;34368;-83
2021/12/29 06:36:01;;;;;;;;;;;;;;;4.97;67.35;99009.84;4402144;32;35151;-83
2021/12/29 06:38:29;;;;;;;;;;;;;;;5.00;67.19;99008.78;4403693;32;34676;-83
2021/12/29 06:40:56;;;;;;;;;;;;;;;5.23;66.23;99002.37;4404639;32;33948;-83
2021/12/29 06:43:24;;;;;;;;;;;;;;;5.12;66.55;99010.37;4400561;32;33484;-83
2021/12/29 06:45:51;;;;;;;;;;;;;;;4.93;67.17;99013.72;4404539;32;34822;-83
2021/12/29 06:48:19;;;;;;;;;;;;;;;5.04;66.77;99023.34;4404150;32;33881;-83
2021/12/29 06:50:46;;;;;;;;;;;;;;;5.20;66.24;99026.37;4401656;32;33392;-83
2021/12/29 06:53:14;;;;;;;;;;;;;;;5.08;66.52;99032.69;4418004;32;34284;-83
2021/12/29 06:55:43;;;;;;;;;;;;;;;5.09;66.52;99035.19;4393052;32;35910;-83
2021/12/29 06:58:10;;;;;;;;;;;;;;;4.94;67.05;99038.25;4401526;32;34562;-83
2021/12/29 07:00:38;;;;;;;;;;;;;;;4.80;67.55;99044.69;4396584;32;34029;-83
2021/12/29 07:03:06;;;;;;;;;;;;;;;5.12;66.65;99039.38;4415907;32;34292;-83
2021/12/29 07:05:33;;;;;;;;;;;;;;;5.06;66.59;99039.88;4402304;32;34169;-83
2021/12/29 07:08:01;;;;;;;;;;;;;;;5.14;66.58;99034.78;4402180;32;34683;-84
2021/12/29 07:10:28;;;;;;;;;;;;;;;5.27;66.28;99036.28;4400562;32;32925;-84
2021/12/29 07:12:56;;;;;;;;;;;;;;;5.26;66.39;99044.34;4403437;32;33759;-83
2021/12/29 07:15:24;;;;;;;;;;;;;;;5.19;66.51;99049.25;4400577;32;35278;-83
2021/12/29 07:17:52;;;;;;;;;;;;;;;5.17;66.48;99047.75;4400971;32;35209;-84
2021/12/29 07:20:19;;;;;;;;;;;;;;;5.08;66.86;99056.41;4401068;32;32721;-84
2021/12/29 07:22:47;;;;;;;;;;;;;;;5.15;66.57;99052.28;4411965;32;34419;-83
2021/12/29 07:25:15;;;;;;;;;;;;;;;4.76;68.03;99055.59;4415473;32;35388;-83
2021/12/29 07:27:42;;;;;;;;;;;;;;;4.78;67.93;99058.94;4402271;32;34833;-84
2021/12/29 07:30:11;;;;;;;;;;;;;;;5.04;67.11;99061.09;4415322;32;34347;-84
2021/12/29 07:32:39;;;;;;;;;;;;;;;4.88;67.55;99067.75;4416469;32;34150;-84
2021/12/29 07:35:07;;;;;;;;;;;;;;;4.53;68.81;99075.09;4389300;32;35160;-84
2021/12/29 07:37:35;;;;;;;;;;;;;;;4.83;67.91;99072.59;4415733;32;34840;-83
2021/12/29 07:40:06;;;;;;;;;;;;;;;4.92;67.55;99072.63;4414686;32;33333;-83
2021/12/29 07:42:35;;;;;;;;;;;;;;;4.86;67.86;99070.53;4400477;32;33435;-83
2021/12/29 07:45:04;;;;;;;;;;;;;;;4.64;68.44;99075.06;4401059;32;36189;-83
2021/12/29 07:47:32;;;;;;;;;;;;;;;4.73;68.29;99072.47;4401989;32;34596;-83
2021/12/29 07:49:59;;;;;;;;;;;;;;;4.77;68.29;99078.34;4401773;32;32661;-84
2021/12/29 07:52:48;;;;;;;;;;;;;;;4.74;68.44;99086.50;4399125;32;34359;-83
2021/12/29 07:55:19;;;;;;;;;;;;;;;4.89;67.91;99080.00;4409650;32;35267;-83
2021/12/29 07:57:48;;;;;;;;;;;;;;;4.88;68.15;99089.69;4417402;32;33094;-84
2021/12/29 08:00:16;;;;;;;;;;;;;;;5.03;67.50;99079.66;4387387;32;31538;-84
2021/12/29 08:02:44;;;;;;;;;;;;;;;4.90;67.98;99073.75;4416632;32;34749;-83
2021/12/29 08:05:12;;;;;;;;;;;;;;;4.64;68.92;99082.94;4415818;32;35368;-83
2021/12/29 08:07:46;;;;;;;;;;;;;;;5.02;67.69;99083.28;4411541;32;34569;-84
2021/12/29 08:10:13;;;;;;;;;;;;;;;5.10;67.27;99076.38;4413948;32;33864;-83
2021/12/29 08:12:40;;;;;;;;;;;;;;;5.23;67.03;99082.34;4412908;32;34318;-84
2021/12/29 08:15:08;;;;;;;;;;;;;;;5.08;67.36;99091.50;4413602;32;34343;-79
2021/12/29 08:17:36;;;;;;;;;;;;;;;5.31;66.72;99098.34;4412593;32;34780;-79
2021/12/29 08:20:04;;;;;;;;;;;;;;;5.05;67.68;99102.31;4414379;32;32916;-78
2021/12/29 08:22:32;;;;;;;;;;;;;;;5.27;67.01;99104.84;4418959;32;34735;-80
2021/12/29 08:24:59;;;;;;;;;;;;;;;5.47;66.47;99105.81;4404133;32;36131;-79
2021/12/29 08:27:27;;;;;;;;;;;;;;;5.31;66.98;99108.06;4401195;32;33912;-80
2021/12/29 08:29:55;;;;;;;;;;;;;;;5.11;67.50;99100.97;4399144;32;32808;-80
2021/12/29 08:32:22;;;;;;;;;;;;;;;5.55;66.39;99123.50;4399828;32;33731;-80
2021/12/29 08:34:49;;;;;;;;;;;;;;;5.54;66.53;99120.97;4409967;32;35243;-79
2021/12/29 08:37:17;;;;;;;;;;;;;;;5.57;66.35;99115.44;4400158;32;34401;-79
2021/12/29 08:39:44;;;;;;;;;;;;;;;5.52;66.51;99121.09;4396851;32;32889;-80
2021/12/29 08:42:12;;;;;;;;;;;;;;;5.41;67.11;99124.78;4416993;32;34181;-79
2021/12/29 08:44:43;;;;;;;;;;;;;;;5.66;66.30;99141.06;4399348;32;35349;-80
2021/12/29 08:47:10;;;;;;;;;;;;;;;5.42;66.62;99134.38;4400997;32;35381;-80
2021/12/29 08:49:37;;;;;;;;;;;;;;;5.50;66.67;99138.88;4387641;32;31975;-81
2021/12/29 08:52:05;;;;;;;;;;;;;;;5.52;66.60;99141.38;4386376;32;32986;-83
2021/12/29 08:54:34;;;;;;;;;;;;;;;5.61;66.40;99140.63;4389195;32;36618;-81
2021/12/29 08:57:02;;;;;;;;;;;;;;;5.66;66.33;99141.06;4417791;32;34719;-81
2021/12/29 08:59:29;;;;;;;;;;;;;;;5.73;65.76;99140.44;4401282;32;33704;-81
2021/12/29 09:01:57;;;;;;;;;;;;;;;5.87;65.68;99136.66;4400185;32;33781;-82
2021/12/29 09:04:24;;;;;;;;;;;;;;;5.97;65.35;99137.53;4401834;32;34403;-82
2021/12/29 09:07:01;;;;;;;;;;;;;;;6.23;64.28;99131.66;4400888;32;34251;-82
2021/12/29 09:09:28;;;;;;;;;;;;;;;5.76;66.04;99134.88;4400178;32;33490;-82
2021/12/29 09:11:58;;;;;;;;;;;;;;;5.67;66.97;99135.66;4411779;32;34896;-83
2021/12/29 09:14:25;;;;;;;;;;;;;;;5.77;66.72;99133.09;4403167;32;36180;-81
2021/12/29 09:16:53;;;;;;;;;;;;;;;5.77;66.72;99130.44;4414152;32;34766;-83
2021/12/29 09:19:22;;;;;;;;;;;;;;;5.96;66.20;99131.41;4398867;32;32930;-83
2021/12/29 09:21:53;;;;;;;;;;;;;;;6.03;66.58;99127.28;4393929;32;33467;-81
2021/12/29 09:24:21;;;;;;;;;;;;;;;6.05;66.77;99122.69;4402277;32;34881;-83
2021/12/29 09:26:49;;;;;;;;;;;;;;;6.31;65.83;99123.91;4410472;32;34406;-82
2021/12/29 09:29:16;;;;;;;;;;;;;;;6.18;66.53;99120.69;4402577;32;33374;-83
2021/12/29 09:31:44;;;;;;;;;;;;;;;6.31;65.58;99112.50;4402242;32;34317;-83
2021/12/29 09:34:13;;;;;;;;;;;;;;;6.43;64.82;99106.97;4410362;32;35982;-82
2021/12/29 09:36:41;;;;;;;;;;;;;;;6.40;64.77;99095.84;4402332;32;34405;-82
2021/12/29 09:39:08;;;;;;;;;;;;;;;6.60;64.60;99093.13;4389057;32;31583;-83
2021/12/29 09:41:36;;;;;;;;;;;;;;;6.41;65.14;99097.50;4409349;32;34132;-82
2021/12/29 09:44:09;;;;;;;;;;;;;;;6.68;64.69;99087.13;4403231;32;35555;-81
2021/12/29 09:46:36;;;;;;;;;;;;;;;6.71;64.67;99089.53;4398637;32;34182;-83
2021/12/29 09:49:04;;;;;;;;;;;;;;;6.78;64.75;99080.91;4413528;32;32692;-82
2021/12/29 09:51:32;;;;;;;;;;;;;;;6.67;65.19;99085.47;4405368;32;34583;-82
2021/12/29 09:53:59;;;;;;;;;;;;;;;6.83;64.31;99091.06;4402192;32;34831;-84
2021/12/29 09:56:27;;;;;;;;;;;;;;;6.77;64.47;99092.44;4392836;32;33628;-82
2021/12/29 09:58:55;;;;;;;;;;;;;;;6.85;64.30;99082.03;4397549;32;33601;-83
2021/12/29 10:01:22;;;;;;;;;;;;;;;6.99;64.02;99089.53;4387476;32;35501;-83
2021/12/29 10:03:51;;;;;;;;;;;;;;;6.92;64.34;99077.81;4401336;32;34908;-83
2021/12/29 10:06:22;;;;;;;;;;;;;;;7.02;64.53;99077.84;4400110;32;34183;-83
2021/12/29 10:08:57;;;;;;;;;;;;;;;6.92;64.71;99071.72;4398663;32;32824;-81
2021/12/29 10:11:29;;;;;;;;;;;;;;;6.78;65.17;99074.75;4399128;32;33781;-83
2021/12/29 10:13:57;;;;;;;;;;;;;;;6.92;64.80;99077.00;4398289;32;34681;-83
2021/12/29 10:16:27;;;;;;;;;;;;;;;6.91;65.03;99072.69;4396298;32;33048;-83
2021/12/29 10:19:12;;;;;;;;;;;;;;;6.53;65.88;99072.66;4395627;32;31935;-83
2021/12/29 10:21:41;;;;;;;;;;;;;;;6.69;65.52;99079.06;4407631;32;33952;-83
2021/12/29 10:24:08;;;;;;;;;;;;;;;7.01;64.70;99077.00;4409521;32;35256;-84
2021/12/29 10:26:47;;;;;;;;;;;;;;;7.12;64.48;99076.03;4405174;32;32765;-82
2021/12/29 10:29:19;;;;;;;;;;;;;;;7.02;64.92;99075.19;4411961;32;33648;-81
2021/12/29 10:31:47;;;;;;;;;;;;;;;7.26;64.23;99083.56;4406075;32;35615;-81
2021/12/29 10:34:26;;;;;;;;;;;;;;;7.44;63.59;99079.22;4403289;32;35295;-83
2021/12/29 10:37:05;;;;;;;;;;;;;;;7.37;64.01;99075.47;4400556;32;35275;-81
2021/12/29 10:39:35;;;;;;;;;;;;;;;6.90;65.37;99087.72;4403174;32;33005;-82
2021/12/29 10:42:09;;;;;;;;;;;;;;;7.47;63.86;99082.38;4411667;32;32224;-83
2021/12/29 10:44:39;;;;;;;;;;;;;;;6.98;65.41;99087.88;4410931;32;35470;-82
2021/12/29 10:47:14;;;;;;;;;;;;;;;7.39;64.10;99077.00;4406556;32;34642;-82
2021/12/29 10:49:53;;;;;;;;;;;;;;;7.37;64.39;99072.81;4405505;32;33318;-83
2021/12/29 10:52:47;;;;;;;;;;;;;;;7.36;64.32;99073.78;4402879;32;33821;-82
2021/12/29 10:55:15;;;;;;;;;;;;;;;6.98;65.38;99084.41;4397758;32;34970;-83
2021/12/29 10:57:44;;;;;;;;;;;;;;;7.14;65.08;99082.00;4397755;32;36331;-81
2021/12/29 11:00:33;;;;;;;;;;;;;;;7.00;65.49;99085.91;4397925;32;31422;-84
2021/12/29 11:03:15;;;;;;;;;;;;;;;6.70;66.06;99093.16;4400489;32;33517;-84
2021/12/29 11:05:53;;;;;;;;;;;;;;;6.85;66.00;99087.31;4389083;32;35000;-84
2021/12/29 11:08:21;;;;;;;;;;;;;;;7.24;64.90;99091.63;4395490;32;33972;-83
2021/12/29 11:10:50;;;;;;;;;;;;;;;6.52;66.96;99092.94;4400316;32;33292;-84
2021/12/29 11:13:24;;;;;;;;;;;;;;;6.97;65.66;99088.84;4395506;32;32460;-82
2021/12/29 11:15:54;;;;;;;;;;;;;;;6.95;65.59;99088.16;4399301;32;35296;-84
2021/12/29 11:18:23;;;;;;;;;;;;;;;6.80;65.96;99084.22;4408918;32;34800;-84
2021/12/29 11:20:56;;;;;;;;;;;;;;;6.70;66.80;99085.22;4403350;32;33162;-82
2021/12/29 11:23:24;;;;;;;;;;;;;;;6.68;66.74;99090.62;4400720;32;33612;-84
2021/12/29 11:25:52;;;;;;;;;;;;;;;6.63;67.22;99092.00;4403274;32;35558;-82
2021/12/29 11:28:25;;;;;;;;;;;;;;;6.01;68.46;99099.31;4402826;32;34491;-83
2021/12/29 11:30:55;;;;;;;;;;;;;;;6.35;67.41;99090.97;4400498;32;33143;-80
2021/12/29 11:33:23;;;;;;;;;;;;;;;6.11;67.78;99092.28;4392696;32;33162;-82
2021/12/29 11:35:53;;;;;;;;;;;;;;;6.00;68.32;99095.00;4404214;32;36128;-83
2021/12/29 11:38:24;;;;;;;;;;;;;;;6.34;66.92;99099.03;4401743;32;34438;-83
2021/12/29 11:40:54;;;;;;;;;;;;;;;6.45;66.68;99093.63;4399812;32;32473;-82
2021/12/29 11:43:22;;;;;;;;;;;;;;;6.30;66.66;99095.81;4399500;32;33733;-83
2021/12/29 11:45:50;;;;;;;;;;;;;;;6.58;66.10;99095.06;4373272;32;33853;-82
2021/12/29 11:48:23;;;;;;;;;;;;;;;6.70;65.77;99093.97;4402227;32;33864;-83
2021/12/29 11:50:53;;;;;;;;;;;;;;;6.86;65.21;99104.00;4399434;32;33374;-82
2021/12/29 11:53:42;;;;;;;;;;;;;;;6.59;65.80;99112.59;4398310;32;34194;-83
2021/12/29 11:56:20;;;;;;;;;;;;;;;6.51;65.89;99107.13;4397691;32;34958;-83
2021/12/29 11:58:48;;;;;;;;;;;;;;;6.30;66.39;99114.31;4402395;32;34931;-82
2021/12/29 12:01:19;;;;;;;;;;;;;;;5.64;68.70;99111.31;4408792;32;33000;-83
2021/12/29 12:03:51;;;;;;;;;;;;;;;6.03;67.76;99122.00;4400761;32;33802;-82
2021/12/29 12:06:33;;;;;;;;;;;;;;;5.94;67.70;99114.84;4402317;32;35913;-80
2021/12/29 12:09:07;;;;;;;;;;;;;;;6.15;66.99;99114.81;4402819;32;33448;-80
2021/12/29 12:11:36;;;;;;;;;;;;;;;6.31;66.78;99115.13;4399606;32;33382;-82
2021/12/29 12:14:15;;;;;;;;;;;;;;;6.19;67.12;99118.84;4397098;32;33172;-81
2021/12/29 12:16:47;;;;;;;;;;;;;;;6.18;67.63;99125.97;4398122;32;33630;-81
2021/12/29 12:19:17;;;;;;;;;;;;;;;6.26;67.55;99123.47;4397321;32;35012;-82
2021/12/29 12:21:45;;;;;;;;;;;;;;;6.41;67.30;99119.50;4395169;32;33023;-81
2021/12/29 12:24:17;;;;;;;;;;;;;;;6.04;68.19;99120.16;4395677;32;33662;-82
2021/12/29 12:26:50;;;;;;;;;;;;;;;6.60;66.61;99118.72;4397707;32;35142;-82
2021/12/29 12:29:21;;;;;;;;;;;;;;;5.93;68.85;99122.91;4398683;32;34113;-81
2021/12/29 12:32:00;;;;;;;;;;;;;;;5.78;68.90;99127.66;4395952;32;32858;-81
2021/12/29 12:34:29;;;;;;;;;;;;;;;6.04;68.32;99122.81;4387671;32;32499;-84
2021/12/29 12:36:59;;;;;;;;;;;;;;;5.97;69.05;99124.34;4398210;32;35065;-82
2021/12/29 12:39:28;;;;;;;;;;;;;;;5.88;69.88;99119.84;4397384;32;34196;-80
2021/12/29 12:41:58;;;;;;;;;;;;;;;6.14;68.55;99124.53;4410037;32;34144;-83
2021/12/29 12:44:34;;;;;;;;;;;;;;;5.79;71.18;99125.91;4386472;32;34918;-83
2021/12/29 12:47:12;;;;;;;;;;;;;;;5.66;71.30;99135.78;4396925;32;34694;-82
2021/12/29 12:49:41;;;;;;;;;;;;;;;6.40;69.14;99130.19;4399643;32;34244;-82
2021/12/29 12:52:15;;;;;;;;;;;;;;;6.00;69.94;99129.34;4403933;32;33411;-82
2021/12/29 12:54:48;;;;;;;;;;;;;;;6.58;67.49;99137.34;4401951;32;33982;-82
2021/12/29 12:57:35;;;;;;;;;;;;;;;6.63;67.57;99137.75;4413433;32;35737;-80
2021/12/29 13:00:23;;;;;;;;;;;;;;;6.38;67.88;99147.97;4412586;32;35644;-82
2021/12/29 13:02:52;;;;;;;;;;;;;;;6.59;67.47;99140.81;4408813;32;33415;-82
2021/12/29 13:05:22;;;;;;;;;;;;;;;6.64;67.34;99149.19;4398747;32;33084;-83
2021/12/29 13:08:22;;;;;;;;;;;;;;;6.03;69.02;99145.75;4384874;32;35248;-82
2021/12/29 13:10:59;;;;;;;;;;;;;;;6.49;67.92;99146.06;4351084;32;34583;-81
2021/12/29 13:13:28;;;;;;;;;;;;;;;6.54;67.65;99148.31;4353814;32;32830;-81
2021/12/29 13:15:57;;;;;;;;;;;;;;;6.60;67.42;99150.44;4338565;32;34494;-82